Time;durP1;ratioP1;P1;durP2;ratioP2;P2;SDS_P1;SDS_P2;PMS_P1;PMS_P2;Temp;Humidity;BMP_temperature;BMP_pressure;BME280_temperature;BME280_humidity;BME280_pressure;Samples;Min_cycle;Max_cycle;Signal;HPM_P1;HPM_P2
2022/07/31 00:06:45;;;;;;;2.30;1.90;;;;;;;20.00;64.97;101607.31;20962655;28;20051;-62
2022/07/31 00:17:06;;;;;;;2.17;1.73;;;;;;;19.44;65.39;101583.28;20967143;28;20578;-61
2022/07/31 00:27:28;;;;;;;5.30;1.50;;;;;;;19.96;62.70;101571.47;20958505;28;20052;-62
2022/07/31 00:37:50;;;;;;;3.08;1.42;;;;;;;19.69;61.01;101571.34;20962361;28;20044;-62
2022/07/31 00:48:22;;;;;;;1.88;1.40;;;;;;;19.81;61.97;101559.63;20939880;28;20048;-62
2022/07/31 00:58:44;;;;;;;3.33;1.50;;;;;;;19.64;63.74;101547.13;20956269;28;20127;-62
2022/07/31 01:09:05;;;;;;;2.70;1.23;;;;;;;19.52;63.90;101554.34;20974525;28;20389;-61
2022/07/31 01:19:32;;;;;;;4.15;1.50;;;;;;;19.54;62.96;101554.19;20955143;28;20048;-64
2022/07/31 01:30:02;;;;;;;2.03;1.50;;;;;;;19.50;63.48;101552.81;20943754;28;20048;-63
2022/07/31 01:40:34;;;;;;;2.28;1.40;;;;;;;19.69;64.29;101555.47;20956776;28;20473;-64
2022/07/31 01:50:57;;;;;;;3.97;1.70;;;;;;;19.76;63.46;101553.94;20946546;28;20131;-64
2022/07/31 02:01:21;;;;;;;3.97;1.60;;;;;;;19.83;64.04;101547.94;20978812;28;20045;-61
2022/07/31 02:11:48;;;;;;;2.30;1.60;;;;;;;19.49;65.22;101535.28;20956796;28;20044;-63
2022/07/31 02:22:15;;;;;;;4.85;1.58;;;;;;;19.25;65.35;101526.88;20959082;28;20098;-66
2022/07/31 02:32:38;;;;;;;2.63;1.60;;;;;;;19.28;65.46;101523.97;20957305;28;20146;-63
2022/07/31 02:42:59;;;;;;;3.08;1.65;;;;;;;19.33;65.24;101516.47;20955370;28;20055;-63
2022/07/31 02:53:23;;;;;;;3.03;1.60;;;;;;;19.13;67.64;101504.19;20950855;28;20098;-61
2022/07/31 03:03:45;;;;;;;2.33;1.52;;;;;;;19.28;67.07;101496.72;20968853;28;20503;-61
2022/07/31 03:14:09;;;;;;;1.70;1.40;;;;;;;19.23;67.99;101507.69;20975064;28;20047;-61
2022/07/31 03:24:31;;;;;;;3.97;1.52;;;;;;;19.11;68.88;101490.25;20968479;28;20517;-61
2022/07/31 03:34:53;;;;;;;4.18;1.73;;;;;;;19.22;68.46;101490.13;20965378;28;20098;-61
2022/07/31 03:45:19;;;;;;;4.43;1.77;;;;;;;19.18;68.53;101490.56;20968630;28;20554;-61
2022/07/31 03:55:42;;;;;;;3.50;1.40;;;;;;;19.09;69.22;101488.72;20964329;28;20134;-62
2022/07/31 04:06:04;;;;;;;2.75;1.70;;;;;;;19.05;69.25;101493.44;20960817;28;20044;-61
2022/07/31 04:16:25;;;;;;;3.72;1.80;;;;;;;18.97;71.13;101497.75;20963892;28;20055;-61
2022/07/31 04:26:49;;;;;;;5.90;2.03;;;;;;;18.77;72.38;101481.00;20963813;28;20082;-61
2022/07/31 04:37:10;;;;;;;5.20;2.20;;;;;;;18.73;72.31;101458.47;20952474;28;20049;-61
2022/07/31 04:47:32;;;;;;;4.50;2.30;;;;;;;18.90;71.37;101447.25;20964865;28;20039;-63
2022/07/31 04:57:53;;;;;;;5.50;2.67;;;;;;;19.32;68.42;101446.03;20959877;28;20469;-61
2022/07/31 05:08:15;;;;;;;5.97;2.72;;;;;;;19.61;67.87;101468.84;20956085;28;20048;-61
2022/07/31 05:18:37;;;;;;;3.15;2.13;;;;;;;19.43;69.20;101473.16;20962501;28;20047;-61
2022/07/31 05:28:59;;;;;;;4.88;2.25;;;;;;;19.53;69.40;101462.59;20956099;28;20048;-61
2022/07/31 05:39:20;;;;;;;3.10;2.35;;;;;;;19.61;69.95;101457.44;20960883;28;20067;-62
2022/07/31 05:49:42;;;;;;;3.97;2.67;;;;;;;19.88;68.36;101457.53;20945794;28;20459;-61
2022/07/31 06:00:04;;;;;;;3.88;2.47;;;;;;;19.97;67.93;101444.31;20962379;28;20048;-61
2022/07/31 06:10:27;;;;;;;4.32;2.42;;;;;;;20.17;66.57;101434.50;20958190;28;20485;-62
2022/07/31 06:20:48;;;;;;;4.57;2.10;;;;;;;20.51;65.77;101434.63;20958130;28;20048;-61
2022/07/31 06:31:20;;;;;;;3.67;2.05;;;;;;;20.66;65.63;101437.59;20957847;28;20048;-61
2022/07/31 06:41:48;;;;;;;5.07;2.25;;;;;;;20.74;65.78;101427.09;20969963;28;20040;-61
2022/07/31 06:52:09;;;;;;;4.38;2.03;;;;;;;20.89;65.77;101412.34;20973416;28;20040;-61
2022/07/31 07:02:31;;;;;;;8.52;2.10;;;;;;;21.16;66.18;101407.81;20966810;28;20056;-61
2022/07/31 07:12:52;;;;;;;4.15;2.25;;;;;;;21.30;66.15;101401.97;20968952;28;20060;-61
2022/07/31 07:23:14;;;;;;;3.75;1.90;;;;;;;21.50;66.27;101392.88;20970719;28;20485;-61
2022/07/31 07:33:36;;;;;;;5.60;2.10;;;;;;;21.65;65.88;101386.03;20969358;28;20040;-61
2022/07/31 07:44:03;;;;;;;4.78;1.70;;;;;;;21.80;65.74;101384.47;20971772;28;20523;-61
2022/07/31 07:54:28;;;;;;;4.82;2.10;;;;;;;22.12;65.00;101374.84;20969849;28;20501;-61
2022/07/31 08:04:50;;;;;;;3.45;1.80;;;;;;;22.30;65.14;101356.16;20965206;28;20102;-61
2022/07/31 08:15:12;;;;;;;3.10;2.00;;;;;;;22.38;64.71;101341.09;20967525;28;20045;-62
2022/07/31 08:25:33;;;;;;;8.25;1.88;;;;;;;22.48;66.28;101334.66;20981319;28;20076;-62
2022/07/31 08:35:57;;;;;;;4.15;1.77;;;;;;;22.49;65.53;101341.63;20964885;28;20497;-62
2022/07/31 08:46:20;;;;;;;5.65;1.80;;;;;;;22.55;69.13;101335.69;20949072;28;20048;-63
2022/07/31 08:56:42;;;;;;;7.75;2.20;;;;;;;22.78;69.30;101326.06;20948911;28;20114;-62
2022/07/31 09:07:04;;;;;;;5.43;1.63;;;;;;;22.94;66.22;101318.09;20944800;28;20056;-66
2022/07/31 09:17:45;;;;;;;3.42;1.90;;;;;;;23.27;65.91;101311.81;20941662;28;20673;-62
2022/07/31 09:28:14;;;;;;;4.15;1.85;;;;;;;23.79;62.75;101310.38;20937977;28;20051;-63
2022/07/31 09:38:42;;;;;;;7.20;1.88;;;;;;;23.97;60.47;101306.47;20951688;28;20114;-62
2022/07/31 09:49:03;;;;;;;3.17;2.00;;;;;;;24.08;60.41;101302.59;20970491;28;20539;-62
2022/07/31 09:59:25;;;;;;;5.93;2.03;;;;;;;24.15;60.42;101298.25;20954638;28;20175;-64
2022/07/31 10:09:47;;;;;;;4.88;2.00;;;;;;;24.46;59.80;101292.72;20968022;28;20044;-62
2022/07/31 10:20:16;;;;;;;3.85;2.20;;;;;;;24.43;58.04;101287.75;20971123;28;20044;-62
2022/07/31 10:30:37;;;;;;;7.20;2.08;;;;;;;24.74;59.01;101280.53;20962682;28;20037;-63
2022/07/31 10:41:16;;;;;;;3.80;2.15;;;;;;;24.75;58.21;101268.84;20968354;28;20052;-62
2022/07/31 10:51:48;;;;;;;5.30;2.25;;;;;;;24.92;57.75;101248.22;20969058;28;20493;-63
2022/07/31 11:02:10;;;;;;;5.38;1.95;;;;;;;25.12;54.92;101258.22;20973371;28;20056;-61
2022/07/31 11:12:32;;;;;;;3.08;2.00;;;;;;;24.72;56.20;101255.91;20964551;28;20486;-60
2022/07/31 11:23:05;;;;;;;5.13;2.50;;;;;;;24.51;58.07;101253.03;20969854;28;20092;-61
2022/07/31 11:33:35;;;;;;;6.03;3.33;;;;;;;24.08;60.70;101252.81;20964289;28;20045;-61
2022/07/31 11:44:03;;;;;;;8.43;3.63;;;;;;;23.95;61.23;101259.69;20964830;28;20048;-60
2022/07/31 11:54:25;;;;;;;8.57;4.53;;;;;;;23.65;63.07;101263.94;20952697;28;20043;-62
2022/07/31 12:04:48;;;;;;;4.90;3.88;;;;;;;23.16;70.90;101263.41;20964877;28;20054;-60
2022/07/31 12:15:17;;;;;;;5.82;2.40;;;;;;;22.67;71.94;101267.06;20961115;28;20401;-61
2022/07/31 12:25:41;;;;;;;5.10;2.50;;;;;;;22.29;77.88;101264.16;20947601;28;20668;-63
2022/07/31 12:36:11;;;;;;;5.65;3.17;;;;;;;22.31;76.84;101262.16;20961151;28;20044;-60
2022/07/31 12:46:35;;;;;;;6.00;3.60;;;;;;;21.97;78.18;101272.03;20957522;28;20047;-61
2022/07/31 12:56:57;;;;;;;6.57;3.40;;;;;;;21.77;81.21;101265.31;20965380;28;20127;-61
2022/07/31 13:07:18;;;;;;;8.00;3.85;;;;;;;21.72;85.75;101247.22;20956734;28;20036;-61
2022/07/31 13:17:40;;;;;;;8.32;4.78;;;;;;;21.62;90.13;101222.59;20961329;28;20045;-61
2022/07/31 13:28:10;;;;;;;5.25;4.75;;;;;;;21.58;90.79;101212.47;20969527;28;20040;-61
2022/07/31 13:38:32;;;;;;;9.95;6.35;;;;;;;21.89;90.38;101202.97;20952545;28;20501;-61
2022/07/31 13:48:57;;;;;;;12.90;7.00;;;;;;;21.90;90.73;101208.13;20952754;28;20579;-62
2022/07/31 13:59:20;;;;;;;12.13;9.25;;;;;;;21.72;91.51;101194.13;20955593;28;20041;-61
2022/07/31 14:09:41;;;;;;;14.45;10.32;;;;;;;21.50;98.71;101191.19;20982604;28;20088;-61
2022/07/31 14:20:16;;;;;;;16.45;12.20;;;;;;;21.52;100.00;101194.53;20954488;28;20052;-61
2022/07/31 14:30:44;;;;;;;19.35;13.40;;;;;;;20.80;100.00;101196.78;20949684;28;20052;-61
2022/07/31 14:41:06;;;;;;;16.92;11.50;;;;;;;20.55;100.00;101191.41;20954061;28;20409;-61
2022/07/31 14:51:28;;;;;;;12.98;9.88;;;;;;;20.31;100.00;101193.00;20960480;28;20445;-61
2022/07/31 15:01:49;;;;;;;15.05;10.98;;;;;;;20.05;100.00;101189.44;20966888;28;20041;-63
2022/07/31 15:12:15;;;;;;;15.52;11.38;;;;;;;19.89;100.00;101178.66;20936792;28;20045;-63
2022/07/31 15:22:37;;;;;;;16.85;11.90;;;;;;;19.84;100.00;101167.69;20964244;28;20045;-63
2022/07/31 15:33:00;;;;;;;15.00;12.88;;;;;;;20.04;100.00;101163.97;20962721;28;20040;-63
2022/07/31 15:43:22;;;;;;;19.35;12.35;;;;;;;20.03;100.00;101152.53;20961174;28;20316;-66
2022/07/31 15:53:44;;;;;;;14.10;11.80;;;;;;;19.98;100.00;101133.63;20961639;28;20045;-64
2022/07/31 16:04:08;;;;;;;15.32;11.88;;;;;;;20.07;100.00;101131.91;20962687;28;20054;-63
2022/07/31 16:14:37;;;;;;;12.13;9.27;;;;;;;20.10;100.00;101110.38;20953850;28;20056;-63
2022/07/31 16:24:59;;;;;;;9.93;8.30;;;;;;;20.10;100.00;101110.38;20965649;28;20051;-63
2022/07/31 16:35:21;;;;;;;10.60;8.65;;;;;;;19.98;100.00;101112.47;20969314;28;20048;-63
2022/07/31 16:45:42;;;;;;;11.45;8.98;;;;;;;20.06;100.00;101099.28;20964370;28;20045;-63
2022/07/31 16:56:05;;;;;;;9.63;8.63;;;;;;;20.20;100.00;101084.69;20966734;28;20051;-64
2022/07/31 17:06:26;;;;;;;12.20;9.50;;;;;;;20.15;100.00;101082.50;20960411;28;20388;-63
2022/07/31 17:16:58;;;;;;;10.88;9.00;;;;;;;20.24;100.00;101076.25;20957992;28;20121;-63
2022/07/31 17:27:21;;;;;;;15.18;9.98;;;;;;;20.32;100.00;101071.00;20945658;28;20047;-64
2022/07/31 17:37:43;;;;;;;12.40;10.13;;;;;;;20.39;100.00;101064.13;20961561;28;20059;-64
2022/07/31 17:48:06;;;;;;;12.48;10.35;;;;;;;20.50;100.00;101067.34;20956575;28;20051;-63
2022/07/31 17:58:28;;;;;;;13.88;11.25;;;;;;;20.50;100.00;101062.06;20950984;28;20409;-63
2022/07/31 18:08:50;;;;;;;12.68;10.43;;;;;;;20.63;100.00;101051.84;20940023;28;20044;-63
2022/07/31 18:19:12;;;;;;;14.55;10.55;;;;;;;20.54;100.00;101060.72;20939827;28;20052;-64
2022/07/31 18:29:34;;;;;;;15.20;11.27;;;;;;;20.39;100.00;101064.94;20949424;28;20048;-64
2022/07/31 18:39:58;;;;;;;12.15;10.32;;;;;;;20.47;100.00;101067.66;20970868;28;20053;-61
2022/07/31 18:50:20;;;;;;;12.82;10.13;;;;;;;20.60;100.00;101062.75;20970770;28;20056;-61
2022/07/31 19:01:02;;;;;;;10.40;9.20;;;;;;;20.59;100.00;101066.41;20970439;28;20071;-61
2022/07/31 19:11:23;;;;;;;6.63;5.93;;;;;;;20.64;100.00;101058.81;20971629;28;20041;-60
2022/07/31 19:21:45;;;;;;;6.43;4.70;;;;;;;20.77;100.00;101068.97;20965151;28;20044;-60
2022/07/31 19:32:07;;;;;;;2.72;2.42;;;;;;;20.40;100.00;101092.28;20968091;28;20036;-60
2022/07/31 19:42:29;;;;;;;3.15;1.42;;;;;;;20.13;100.00;101094.19;20967342;28;20501;-62
2022/07/31 19:52:51;;;;;;;2.40;1.20;;;;;;;20.26;100.00;101099.94;20972862;28;20045;-61
2022/07/31 20:03:13;;;;;;;2.50;1.30;;;;;;;20.21;100.00;101112.81;20969600;28;20047;-61
2022/07/31 20:13:37;;;;;;;1.30;1.20;;;;;;;20.19;100.00;101109.50;20964918;28;20102;-61
2022/07/31 20:24:00;;;;;;;1.20;1.10;;;;;;;20.07;100.00;101110.72;20967246;28;20049;-62
2022/07/31 20:34:22;;;;;;;3.08;1.20;;;;;;;19.86;100.00;101112.78;20980441;28;20044;-63
2022/07/31 20:44:44;;;;;;;1.08;0.98;;;;;;;19.92;100.00;101101.63;20950556;28;20636;-61
2022/07/31 20:55:05;;;;;;;1.23;0.88;;;;;;;19.90;100.00;101104.38;20966577;28;20044;-62
2022/07/31 21:05:29;;;;;;;1.75;0.70;;;;;;;19.88;100.00;101102.88;20958287;28;20492;-62
2022/07/31 21:15:51;;;;;;;0.60;0.60;;;;;;;19.83;100.00;101107.78;20959400;28;20049;-62
2022/07/31 21:26:14;;;;;;;1.80;0.77;;;;;;;19.74;100.00;101098.13;20949067;28;20044;-62
2022/07/31 21:36:36;;;;;;;0.55;0.55;;;;;;;19.67;100.00;101108.47;20965131;28;20079;-61
2022/07/31 21:47:00;;;;;;;1.02;0.80;;;;;;;19.68;100.00;101115.44;20962790;28;20048;-62
2022/07/31 21:57:24;;;;;;;2.13;0.75;;;;;;;19.63;100.00;101124.81;20955529;28;20141;-61
2022/07/31 22:07:48;;;;;;;0.80;0.80;;;;;;;19.65;100.00;101125.47;20978002;28;20072;-61
2022/07/31 22:18:10;;;;;;;0.50;0.50;;;;;;;19.68;100.00;101135.75;20987403;28;20385;-61
2022/07/31 22:28:31;;;;;;;1.50;0.73;;;;;;;19.67;100.00;101139.38;20982608;28;20033;-61
2022/07/31 22:38:53;;;;;;;1.48;0.80;;;;;;;19.76;100.00;101151.72;20981351;28;20401;-61
2022/07/31 22:49:16;;;;;;;1.95;0.82;;;;;;;19.56;100.00;101150.16;20986155;28;20556;-61
2022/07/31 22:59:38;;;;;;;3.63;1.10;;;;;;;19.62;100.00;101157.53;20981478;28;20131;-61
2022/07/31 23:10:01;;;;;;;1.02;1.00;;;;;;;19.58;100.00;101164.91;20977637;28;20047;-63
2022/07/31 23:20:22;;;;;;;2.20;1.00;;;;;;;19.46;100.00;101168.72;20972079;28;20044;-61
2022/07/31 23:30:44;;;;;;;1.85;1.33;;;;;;;19.44;100.00;101169.88;20970533;28;20037;-61
2022/07/31 23:41:06;;;;;;;1.90;1.80;;;;;;;19.35;100.00;101183.13;20967684;28;20036;-61
2022/07/31 23:51:27;;;;;;;2.00;1.77;;;;;;;19.27;100.00;101183.84;20967625;28;20052;-61
